sensor_id;sensor_type;location;lat;lon;timestamp;P1;durP1;ratioP1;P2;durP2;ratioP2
33858;SDS011;20156;47.486;12.074;2023-09-12T00:01:03;11.05;;;9.85;;
33858;SDS011;20156;47.486;12.074;2023-09-12T00:03:32;11.15;;;10.13;;
33858;SDS011;20156;47.486;12.074;2023-09-12T00:05:59;10.73;;;9.73;;
33858;SDS011;20156;47.486;12.074;2023-09-12T00:08:25;11.43;;;10.45;;
33858;SDS011;20156;47.486;12.074;2023-09-12T00:11:01;11.90;;;10.55;;
33858;SDS011;20156;47.486;12.074;2023-09-12T00:13:28;11.57;;;10.45;;
33858;SDS011;20156;47.486;12.074;2023-09-12T00:15:55;11.38;;;10.32;;
33858;SDS011;20156;47.486;12.074;2023-09-12T00:18:20;12.00;;;10.88;;
33858;SDS011;20156;47.486;12.074;2023-09-12T00:20:46;10.80;;;9.77;;
33858;SDS011;20156;47.486;12.074;2023-09-12T00:23:11;12.13;;;11.02;;
33858;SDS011;20156;47.486;12.074;2023-09-12T00:25:37;11.10;;;9.93;;
33858;SDS011;20156;47.486;12.074;2023-09-12T00:28:02;10.55;;;9.65;;
33858;SDS011;20156;47.486;12.074;2023-09-12T00:30:28;9.07;;;8.32;;
33858;SDS011;20156;47.486;12.074;2023-09-12T00:32:53;10.95;;;9.98;;
33858;SDS011;20156;47.486;12.074;2023-09-12T00:35:18;10.60;;;9.65;;
33858;SDS011;20156;47.486;12.074;2023-09-12T00:37:44;11.93;;;10.75;;
33858;SDS011;20156;47.486;12.074;2023-09-12T00:40:09;12.13;;;11.02;;
33858;SDS011;20156;47.486;12.074;2023-09-12T00:42:35;10.90;;;9.90;;
33858;SDS011;20156;47.486;12.074;2023-09-12T00:45:00;11.98;;;10.88;;
33858;SDS011;20156;47.486;12.074;2023-09-12T00:47:26;11.32;;;10.23;;
33858;SDS011;20156;47.486;12.074;2023-09-12T00:49:53;12.55;;;10.43;;
33858;SDS011;20156;47.486;12.074;2023-09-12T00:52:21;12.45;;;11.15;;
33858;SDS011;20156;47.486;12.074;2023-09-12T00:54:49;11.95;;;10.80;;
33858;SDS011;20156;47.486;12.074;2023-09-12T00:57:15;12.07;;;10.77;;
33858;SDS011;20156;47.486;12.074;2023-09-12T00:59:41;12.65;;;11.27;;
33858;SDS011;20156;47.486;12.074;2023-09-12T01:02:07;10.40;;;9.50;;
33858;SDS011;20156;47.486;12.074;2023-09-12T01:04:33;10.70;;;9.70;;
33858;SDS011;20156;47.486;12.074;2023-09-12T01:07:02;11.38;;;10.30;;
33858;SDS011;20156;47.486;12.074;2023-09-12T01:09:29;11.32;;;10.38;;
33858;SDS011;20156;47.486;12.074;2023-09-12T01:11:55;10.20;;;9.15;;
33858;SDS011;20156;47.486;12.074;2023-09-12T01:14:21;9.90;;;9.00;;
33858;SDS011;20156;47.486;12.074;2023-09-12T01:16:46;11.50;;;10.30;;
33858;SDS011;20156;47.486;12.074;2023-09-12T01:19:12;12.40;;;11.25;;
33858;SDS011;20156;47.486;12.074;2023-09-12T01:27:30;10.45;;;9.48;;
33858;SDS011;20156;47.486;12.074;2023-09-12T01:30:01;10.43;;;9.55;;
33858;SDS011;20156;47.486;12.074;2023-09-12T01:32:29;12.15;;;11.02;;
33858;SDS011;20156;47.486;12.074;2023-09-12T01:34:56;11.93;;;10.82;;
33858;SDS011;20156;47.486;12.074;2023-09-12T01:37:21;12.85;;;11.65;;
33858;SDS011;20156;47.486;12.074;2023-09-12T01:39:47;13.55;;;12.25;;
33858;SDS011;20156;47.486;12.074;2023-09-12T01:42:13;12.85;;;11.65;;
33858;SDS011;20156;47.486;12.074;2023-09-12T01:44:41;13.07;;;11.88;;
33858;SDS011;20156;47.486;12.074;2023-09-12T01:47:09;13.23;;;11.93;;
33858;SDS011;20156;47.486;12.074;2023-09-12T01:49:37;11.77;;;10.65;;
33858;SDS011;20156;47.486;12.074;2023-09-12T01:52:05;11.13;;;10.23;;
33858;SDS011;20156;47.486;12.074;2023-09-12T01:54:30;11.05;;;9.95;;
33858;SDS011;20156;47.486;12.074;2023-09-12T01:56:57;9.75;;;8.85;;
33858;SDS011;20156;47.486;12.074;2023-09-12T01:59:24;11.93;;;10.93;;
33858;SDS011;20156;47.486;12.074;2023-09-12T02:01:50;13.13;;;11.85;;
33858;SDS011;20156;47.486;12.074;2023-09-12T02:04:16;13.93;;;12.63;;
33858;SDS011;20156;47.486;12.074;2023-09-12T02:06:41;10.65;;;9.65;;
33858;SDS011;20156;47.486;12.074;2023-09-12T02:09:06;11.48;;;10.40;;
33858;SDS011;20156;47.486;12.074;2023-09-12T02:11:32;10.25;;;9.30;;
33858;SDS011;20156;47.486;12.074;2023-09-12T02:13:57;9.95;;;9.05;;
33858;SDS011;20156;47.486;12.074;2023-09-12T02:16:23;11.32;;;10.23;;
33858;SDS011;20156;47.486;12.074;2023-09-12T02:18:48;12.18;;;10.98;;
33858;SDS011;20156;47.486;12.074;2023-09-12T02:21:13;13.25;;;11.90;;
33858;SDS011;20156;47.486;12.074;2023-09-12T02:23:41;11.13;;;10.10;;
33858;SDS011;20156;47.486;12.074;2023-09-12T02:26:06;10.95;;;10.05;;
33858;SDS011;20156;47.486;12.074;2023-09-12T02:28:32;10.43;;;9.45;;
33858;SDS011;20156;47.486;12.074;2023-09-12T02:30:57;10.93;;;9.88;;
33858;SDS011;20156;47.486;12.074;2023-09-12T02:33:23;11.23;;;9.43;;
33858;SDS011;20156;47.486;12.074;2023-09-12T02:35:48;10.50;;;9.50;;
33858;SDS011;20156;47.486;12.074;2023-09-12T02:38:13;11.38;;;10.27;;
33858;SDS011;20156;47.486;12.074;2023-09-12T02:40:39;12.00;;;10.77;;
33858;SDS011;20156;47.486;12.074;2023-09-12T02:43:04;12.15;;;11.13;;
33858;SDS011;20156;47.486;12.074;2023-09-12T02:45:30;12.60;;;11.50;;
33858;SDS011;20156;47.486;12.074;2023-09-12T02:47:55;10.80;;;9.82;;
33858;SDS011;20156;47.486;12.074;2023-09-12T02:50:21;10.88;;;9.88;;
33858;SDS011;20156;47.486;12.074;2023-09-12T02:52:46;12.38;;;11.15;;
33858;SDS011;20156;47.486;12.074;2023-09-12T02:55:12;12.40;;;11.20;;
33858;SDS011;20156;47.486;12.074;2023-09-12T02:57:37;11.57;;;10.48;;
33858;SDS011;20156;47.486;12.074;2023-09-12T03:00:03;10.93;;;9.93;;
33858;SDS011;20156;47.486;12.074;2023-09-12T03:02:32;12.43;;;11.23;;
33858;SDS011;20156;47.486;12.074;2023-09-12T03:04:57;11.60;;;10.50;;
33858;SDS011;20156;47.486;12.074;2023-09-12T03:07:23;10.60;;;9.70;;
33858;SDS011;20156;47.486;12.074;2023-09-12T03:09:48;11.10;;;10.10;;
33858;SDS011;20156;47.486;12.074;2023-09-12T03:12:17;10.90;;;9.93;;
33858;SDS011;20156;47.486;12.074;2023-09-12T03:14:42;10.98;;;9.88;;
33858;SDS011;20156;47.486;12.074;2023-09-12T03:17:08;11.35;;;10.20;;
33858;SDS011;20156;47.486;12.074;2023-09-12T03:19:33;13.63;;;12.32;;
33858;SDS011;20156;47.486;12.074;2023-09-12T03:21:58;11.60;;;10.60;;
33858;SDS011;20156;47.486;12.074;2023-09-12T03:24:24;13.48;;;12.18;;
33858;SDS011;20156;47.486;12.074;2023-09-12T03:26:50;11.52;;;10.25;;
33858;SDS011;20156;47.486;12.074;2023-09-12T03:29:16;12.35;;;11.13;;
33858;SDS011;20156;47.486;12.074;2023-09-12T03:31:42;14.57;;;13.18;;
33858;SDS011;20156;47.486;12.074;2023-09-12T03:34:07;14.38;;;12.88;;
33858;SDS011;20156;47.486;12.074;2023-09-12T03:36:33;12.45;;;11.18;;
33858;SDS011;20156;47.486;12.074;2023-09-12T03:38:58;13.50;;;12.20;;
33858;SDS011;20156;47.486;12.074;2023-09-12T03:41:24;12.98;;;11.68;;
33858;SDS011;20156;47.486;12.074;2023-09-12T03:43:52;12.65;;;11.55;;
33858;SDS011;20156;47.486;12.074;2023-09-12T03:46:19;13.48;;;12.07;;
33858;SDS011;20156;47.486;12.074;2023-09-12T03:48:44;13.80;;;12.50;;
33858;SDS011;20156;47.486;12.074;2023-09-12T03:51:10;13.15;;;11.85;;
33858;SDS011;20156;47.486;12.074;2023-09-12T03:53:36;13.70;;;12.30;;
33858;SDS011;20156;47.486;12.074;2023-09-12T03:56:01;13.02;;;11.73;;
33858;SDS011;20156;47.486;12.074;2023-09-12T03:58:27;14.13;;;12.93;;
33858;SDS011;20156;47.486;12.074;2023-09-12T04:00:53;12.00;;;10.82;;
33858;SDS011;20156;47.486;12.074;2023-09-12T04:03:18;12.20;;;10.55;;
33858;SDS011;20156;47.486;12.074;2023-09-12T04:05:46;10.73;;;9.73;;
33858;SDS011;20156;47.486;12.074;2023-09-12T04:08:12;11.32;;;10.25;;
33858;SDS011;20156;47.486;12.074;2023-09-12T04:10:37;10.50;;;9.50;;
33858;SDS011;20156;47.486;12.074;2023-09-12T04:13:03;12.60;;;11.43;;
33858;SDS011;20156;47.486;12.074;2023-09-12T04:15:28;11.00;;;9.90;;
33858;SDS011;20156;47.486;12.074;2023-09-12T04:17:54;11.75;;;10.63;;
33858;SDS011;20156;47.486;12.074;2023-09-12T04:20:19;11.98;;;10.88;;
33858;SDS011;20156;47.486;12.074;2023-09-12T04:22:44;12.45;;;11.25;;
33858;SDS011;20156;47.486;12.074;2023-09-12T04:25:10;12.45;;;11.18;;
33858;SDS011;20156;47.486;12.074;2023-09-12T04:27:36;11.43;;;10.32;;
33858;SDS011;20156;47.486;12.074;2023-09-12T04:30:01;11.68;;;10.57;;
33858;SDS011;20156;47.486;12.074;2023-09-12T04:32:27;10.25;;;9.35;;
33858;SDS011;20156;47.486;12.074;2023-09-12T04:34:52;11.75;;;10.52;;
33858;SDS011;20156;47.486;12.074;2023-09-12T04:37:17;13.07;;;11.75;;
33858;SDS011;20156;47.486;12.074;2023-09-12T04:39:43;13.73;;;12.52;;
33858;SDS011;20156;47.486;12.074;2023-09-12T04:42:09;13.45;;;12.25;;
33858;SDS011;20156;47.486;12.074;2023-09-12T04:44:35;11.80;;;10.70;;
33858;SDS011;20156;47.486;12.074;2023-09-12T04:47:01;12.48;;;11.38;;
33858;SDS011;20156;47.486;12.074;2023-09-12T04:49:27;12.23;;;11.02;;
33858;SDS011;20156;47.486;12.074;2023-09-12T04:51:53;12.13;;;11.13;;
33858;SDS011;20156;47.486;12.074;2023-09-12T04:54:18;12.65;;;11.40;;
33858;SDS011;20156;47.486;12.074;2023-09-12T04:56:44;11.60;;;10.52;;
33858;SDS011;20156;47.486;12.074;2023-09-12T04:59:09;11.45;;;10.45;;
33858;SDS011;20156;47.486;12.074;2023-09-12T05:01:34;10.95;;;9.85;;
33858;SDS011;20156;47.486;12.074;2023-09-12T05:04:00;10.32;;;9.43;;
33858;SDS011;20156;47.486;12.074;2023-09-12T05:06:25;10.48;;;9.48;;
33858;SDS011;20156;47.486;12.074;2023-09-12T05:08:50;10.93;;;9.85;;
33858;SDS011;20156;47.486;12.074;2023-09-12T05:11:16;11.05;;;10.05;;
33858;SDS011;20156;47.486;12.074;2023-09-12T05:13:42;9.95;;;9.05;;
33858;SDS011;20156;47.486;12.074;2023-09-12T05:16:07;10.68;;;9.68;;
33858;SDS011;20156;47.486;12.074;2023-09-12T05:18:33;11.65;;;10.23;;
33858;SDS011;20156;47.486;12.074;2023-09-12T05:20:58;13.25;;;11.68;;
33858;SDS011;20156;47.486;12.074;2023-09-12T05:23:24;11.73;;;10.63;;
33858;SDS011;20156;47.486;12.074;2023-09-12T05:25:49;11.65;;;10.43;;
33858;SDS011;20156;47.486;12.074;2023-09-12T05:28:14;13.32;;;12.05;;
33858;SDS011;20156;47.486;12.074;2023-09-12T05:30:41;13.80;;;12.50;;
33858;SDS011;20156;47.486;12.074;2023-09-12T05:33:08;9.98;;;9.18;;
33858;SDS011;20156;47.486;12.074;2023-09-12T05:35:33;12.02;;;10.77;;
33858;SDS011;20156;47.486;12.074;2023-09-12T05:37:58;12.52;;;11.40;;
33858;SDS011;20156;47.486;12.074;2023-09-12T05:40:24;12.60;;;11.50;;
33858;SDS011;20156;47.486;12.074;2023-09-12T05:42:49;11.75;;;10.63;;
33858;SDS011;20156;47.486;12.074;2023-09-12T05:45:15;11.55;;;10.55;;
33858;SDS011;20156;47.486;12.074;2023-09-12T05:47:40;11.02;;;9.70;;
33858;SDS011;20156;47.486;12.074;2023-09-12T05:50:06;11.82;;;10.00;;
33858;SDS011;20156;47.486;12.074;2023-09-12T05:52:32;11.13;;;10.02;;
33858;SDS011;20156;47.486;12.074;2023-09-12T05:54:58;11.50;;;10.10;;
33858;SDS011;20156;47.486;12.074;2023-09-12T05:57:23;11.38;;;10.27;;
33858;SDS011;20156;47.486;12.074;2023-09-12T05:59:49;11.10;;;10.00;;
33858;SDS011;20156;47.486;12.074;2023-09-12T06:02:15;11.30;;;10.20;;
33858;SDS011;20156;47.486;12.074;2023-09-12T06:04:41;11.90;;;10.80;;
33858;SDS011;20156;47.486;12.074;2023-09-12T06:07:06;13.30;;;12.02;;
33858;SDS011;20156;47.486;12.074;2023-09-12T06:09:32;13.48;;;12.18;;
33858;SDS011;20156;47.486;12.074;2023-09-12T06:11:57;14.20;;;12.80;;
33858;SDS011;20156;47.486;12.074;2023-09-12T06:14:22;15.02;;;13.60;;
33858;SDS011;20156;47.486;12.074;2023-09-12T06:16:48;14.35;;;13.05;;
33858;SDS011;20156;47.486;12.074;2023-09-12T06:19:13;14.02;;;12.73;;
33858;SDS011;20156;47.486;12.074;2023-09-12T06:21:40;13.80;;;12.40;;
33858;SDS011;20156;47.486;12.074;2023-09-12T06:24:16;13.07;;;11.90;;
33858;SDS011;20156;47.486;12.074;2023-09-12T06:26:46;15.10;;;12.52;;
33858;SDS011;20156;47.486;12.074;2023-09-12T06:29:12;15.27;;;12.98;;
33858;SDS011;20156;47.486;12.074;2023-09-12T06:31:38;16.08;;;13.00;;
33858;SDS011;20156;47.486;12.074;2023-09-12T06:34:06;17.35;;;13.95;;
33858;SDS011;20156;47.486;12.074;2023-09-12T06:36:32;18.77;;;16.15;;
33858;SDS011;20156;47.486;12.074;2023-09-12T06:38:57;17.73;;;14.40;;
33858;SDS011;20156;47.486;12.074;2023-09-12T06:41:24;20.38;;;16.10;;
33858;SDS011;20156;47.486;12.074;2023-09-12T06:43:50;17.23;;;15.30;;
33858;SDS011;20156;47.486;12.074;2023-09-12T06:46:15;18.15;;;16.02;;
33858;SDS011;20156;47.486;12.074;2023-09-12T06:48:44;17.30;;;15.43;;
33858;SDS011;20156;47.486;12.074;2023-09-12T06:51:10;18.45;;;15.30;;
33858;SDS011;20156;47.486;12.074;2023-09-12T06:53:36;16.92;;;15.27;;
33858;SDS011;20156;47.486;12.074;2023-09-12T06:56:04;18.75;;;16.80;;
33858;SDS011;20156;47.486;12.074;2023-09-12T06:58:30;22.35;;;19.73;;
33858;SDS011;20156;47.486;12.074;2023-09-12T07:00:56;20.50;;;18.30;;
33858;SDS011;20156;47.486;12.074;2023-09-12T07:03:26;19.92;;;17.67;;
33858;SDS011;20156;47.486;12.074;2023-09-12T07:05:52;21.58;;;18.83;;
33858;SDS011;20156;47.486;12.074;2023-09-12T07:08:17;23.90;;;19.90;;
33858;SDS011;20156;47.486;12.074;2023-09-12T07:10:43;26.23;;;21.02;;
33858;SDS011;20156;47.486;12.074;2023-09-12T07:13:10;24.48;;;20.90;;
33858;SDS011;20156;47.486;12.074;2023-09-12T07:15:36;23.23;;;20.25;;
33858;SDS011;20156;47.486;12.074;2023-09-12T07:18:01;22.25;;;19.13;;
33858;SDS011;20156;47.486;12.074;2023-09-12T07:20:27;24.83;;;19.83;;
33858;SDS011;20156;47.486;12.074;2023-09-12T07:22:52;18.45;;;16.75;;
33858;SDS011;20156;47.486;12.074;2023-09-12T07:25:18;18.35;;;16.45;;
33858;SDS011;20156;47.486;12.074;2023-09-12T07:27:45;20.05;;;18.05;;
33858;SDS011;20156;47.486;12.074;2023-09-12T07:30:11;19.60;;;17.70;;
33858;SDS011;20156;47.486;12.074;2023-09-12T07:32:37;20.92;;;18.77;;
33858;SDS011;20156;47.486;12.074;2023-09-12T07:35:02;22.00;;;18.90;;
33858;SDS011;20156;47.486;12.074;2023-09-12T07:37:27;20.08;;;18.10;;
33858;SDS011;20156;47.486;12.074;2023-09-12T07:39:53;19.40;;;17.52;;
33858;SDS011;20156;47.486;12.074;2023-09-12T07:42:21;17.83;;;16.15;;
33858;SDS011;20156;47.486;12.074;2023-09-12T07:44:47;17.40;;;14.90;;
33858;SDS011;20156;47.486;12.074;2023-09-12T07:47:13;17.23;;;15.57;;
33858;SDS011;20156;47.486;12.074;2023-09-12T07:49:39;18.92;;;15.95;;
33858;SDS011;20156;47.486;12.074;2023-09-12T07:52:05;18.08;;;15.65;;
33858;SDS011;20156;47.486;12.074;2023-09-12T07:54:31;18.05;;;16.25;;
33858;SDS011;20156;47.486;12.074;2023-09-12T07:56:56;17.70;;;15.88;;
33858;SDS011;20156;47.486;12.074;2023-09-12T07:59:21;18.25;;;16.50;;
33858;SDS011;20156;47.486;12.074;2023-09-12T08:01:47;20.63;;;18.60;;
33858;SDS011;20156;47.486;12.074;2023-09-12T08:04:12;20.77;;;18.73;;
33858;SDS011;20156;47.486;12.074;2023-09-12T08:06:39;20.83;;;18.60;;
33858;SDS011;20156;47.486;12.074;2023-09-12T08:09:06;18.10;;;16.20;;
33858;SDS011;20156;47.486;12.074;2023-09-12T08:11:31;19.75;;;17.75;;
33858;SDS011;20156;47.486;12.074;2023-09-12T08:13:57;19.33;;;17.40;;
33858;SDS011;20156;47.486;12.074;2023-09-12T08:16:22;19.60;;;17.42;;
33858;SDS011;20156;47.486;12.074;2023-09-12T08:18:48;19.27;;;17.40;;
33858;SDS011;20156;47.486;12.074;2023-09-12T08:21:13;18.73;;;16.90;;
33858;SDS011;20156;47.486;12.074;2023-09-12T08:23:39;18.40;;;16.58;;
33858;SDS011;20156;47.486;12.074;2023-09-12T08:26:04;17.27;;;15.60;;
33858;SDS011;20156;47.486;12.074;2023-09-12T08:28:29;16.70;;;15.13;;
33858;SDS011;20156;47.486;12.074;2023-09-12T08:30:55;15.93;;;14.43;;
33858;SDS011;20156;47.486;12.074;2023-09-12T08:33:20;16.98;;;15.32;;
33858;SDS011;20156;47.486;12.074;2023-09-12T08:35:46;17.85;;;16.35;;
33858;SDS011;20156;47.486;12.074;2023-09-12T08:38:11;16.45;;;14.90;;
33858;SDS011;20156;47.486;12.074;2023-09-12T08:40:37;14.82;;;13.50;;
33858;SDS011;20156;47.486;12.074;2023-09-12T08:43:03;14.23;;;12.77;;
33858;SDS011;20156;47.486;12.074;2023-09-12T08:45:28;14.25;;;13.02;;
33858;SDS011;20156;47.486;12.074;2023-09-12T08:47:55;15.85;;;14.38;;
33858;SDS011;20156;47.486;12.074;2023-09-12T08:50:23;15.13;;;13.63;;
33858;SDS011;20156;47.486;12.074;2023-09-12T08:52:49;14.07;;;12.75;;
33858;SDS011;20156;47.486;12.074;2023-09-12T08:55:15;15.57;;;14.18;;
33858;SDS011;20156;47.486;12.074;2023-09-12T08:57:41;16.55;;;14.93;;
33858;SDS011;20156;47.486;12.074;2023-09-12T09:00:08;15.88;;;14.38;;
33858;SDS011;20156;47.486;12.074;2023-09-12T09:02:42;17.13;;;14.77;;
33858;SDS011;20156;47.486;12.074;2023-09-12T09:05:09;14.85;;;13.43;;
33858;SDS011;20156;47.486;12.074;2023-09-12T09:07:39;16.70;;;15.10;;
33858;SDS011;20156;47.486;12.074;2023-09-12T09:10:07;15.48;;;14.07;;
33858;SDS011;20156;47.486;12.074;2023-09-12T09:12:35;16.17;;;14.70;;
33858;SDS011;20156;47.486;12.074;2023-09-12T09:17:52;15.77;;;14.25;;
33858;SDS011;20156;47.486;12.074;2023-09-12T09:23:03;15.10;;;13.68;;
33858;SDS011;20156;47.486;12.074;2023-09-12T09:25:35;13.68;;;12.43;;
33858;SDS011;20156;47.486;12.074;2023-09-12T09:28:04;14.60;;;13.27;;
33858;SDS011;20156;47.486;12.074;2023-09-12T09:30:44;14.75;;;13.30;;
33858;SDS011;20156;47.486;12.074;2023-09-12T09:33:11;13.63;;;12.38;;
33858;SDS011;20156;47.486;12.074;2023-09-12T09:35:38;14.10;;;12.70;;
33858;SDS011;20156;47.486;12.074;2023-09-12T09:38:18;14.23;;;12.70;;
33858;SDS011;20156;47.486;12.074;2023-09-12T09:40:45;14.27;;;12.98;;
33858;SDS011;20156;47.486;12.074;2023-09-12T09:43:12;13.13;;;12.02;;
33858;SDS011;20156;47.486;12.074;2023-09-12T09:45:43;13.30;;;12.07;;
33858;SDS011;20156;47.486;12.074;2023-09-12T09:48:10;13.82;;;12.40;;
33858;SDS011;20156;47.486;12.074;2023-09-12T09:50:42;14.00;;;12.70;;
33858;SDS011;20156;47.486;12.074;2023-09-12T09:53:07;15.18;;;13.77;;
33858;SDS011;20156;47.486;12.074;2023-09-12T09:55:35;15.00;;;13.60;;
33858;SDS011;20156;47.486;12.074;2023-09-12T09:58:01;14.85;;;13.35;;
33858;SDS011;20156;47.486;12.074;2023-09-12T10:00:27;14.65;;;13.30;;
33858;SDS011;20156;47.486;12.074;2023-09-12T10:02:54;14.98;;;13.57;;
33858;SDS011;20156;47.486;12.074;2023-09-12T10:05:21;14.68;;;13.25;;
33858;SDS011;20156;47.486;12.074;2023-09-12T10:07:48;14.73;;;13.43;;
33858;SDS011;20156;47.486;12.074;2023-09-12T10:10:17;15.38;;;13.82;;
33858;SDS011;20156;47.486;12.074;2023-09-12T10:12:49;15.82;;;14.27;;
33858;SDS011;20156;47.486;12.074;2023-09-12T10:15:17;13.85;;;12.55;;
33858;SDS011;20156;47.486;12.074;2023-09-12T10:17:45;14.60;;;13.27;;
33858;SDS011;20156;47.486;12.074;2023-09-12T10:20:16;16.15;;;14.02;;
33858;SDS011;20156;47.486;12.074;2023-09-12T10:23:01;17.65;;;13.60;;
33858;SDS011;20156;47.486;12.074;2023-09-12T10:25:34;14.13;;;12.77;;
33858;SDS011;20156;47.486;12.074;2023-09-12T10:28:01;15.55;;;13.52;;
33858;SDS011;20156;47.486;12.074;2023-09-12T10:30:29;14.65;;;13.35;;
33858;SDS011;20156;47.486;12.074;2023-09-12T10:32:56;13.88;;;12.77;;
33858;SDS011;20156;47.486;12.074;2023-09-12T10:35:23;14.35;;;12.95;;
33858;SDS011;20156;47.486;12.074;2023-09-12T10:37:48;15.23;;;13.55;;
33858;SDS011;20156;47.486;12.074;2023-09-12T10:40:16;14.15;;;12.90;;
33858;SDS011;20156;47.486;12.074;2023-09-12T10:42:42;14.20;;;12.90;;
33858;SDS011;20156;47.486;12.074;2023-09-12T10:45:08;15.23;;;13.63;;
33858;SDS011;20156;47.486;12.074;2023-09-12T10:47:37;15.65;;;13.98;;
33858;SDS011;20156;47.486;12.074;2023-09-12T10:50:03;16.80;;;15.13;;
33858;SDS011;20156;47.486;12.074;2023-09-12T10:52:29;16.73;;;15.05;;
33858;SDS011;20156;47.486;12.074;2023-09-12T10:54:55;14.13;;;12.82;;
33858;SDS011;20156;47.486;12.074;2023-09-12T10:57:21;15.20;;;13.70;;
33858;SDS011;20156;47.486;12.074;2023-09-12T11:02:28;16.13;;;14.52;;
33858;SDS011;20156;47.486;12.074;2023-09-12T11:05:00;15.25;;;13.85;;
33858;SDS011;20156;47.486;12.074;2023-09-12T11:07:30;14.40;;;13.20;;
33858;SDS011;20156;47.486;12.074;2023-09-12T11:12:52;14.77;;;13.23;;
33858;SDS011;20156;47.486;12.074;2023-09-12T11:15:19;15.27;;;13.98;;
33858;SDS011;20156;47.486;12.074;2023-09-12T11:17:47;13.98;;;12.63;;
33858;SDS011;20156;47.486;12.074;2023-09-12T11:20:14;14.55;;;13.15;;
33858;SDS011;20156;47.486;12.074;2023-09-12T11:22:43;13.48;;;12.18;;
33858;SDS011;20156;47.486;12.074;2023-09-12T11:25:23;15.75;;;13.30;;
33858;SDS011;20156;47.486;12.074;2023-09-12T11:30:19;14.48;;;12.98;;
33858;SDS011;20156;47.486;12.074;2023-09-12T11:32:52;13.57;;;12.35;;
33858;SDS011;20156;47.486;12.074;2023-09-12T11:35:22;15.60;;;13.95;;
33858;SDS011;20156;47.486;12.074;2023-09-12T11:37:49;14.25;;;13.05;;
33858;SDS011;20156;47.486;12.074;2023-09-12T11:40:23;14.35;;;12.85;;
33858;SDS011;20156;47.486;12.074;2023-09-12T11:42:58;12.38;;;11.07;;
33858;SDS011;20156;47.486;12.074;2023-09-12T11:45:24;14.63;;;13.25;;
33858;SDS011;20156;47.486;12.074;2023-09-12T11:47:50;14.20;;;12.80;;
33858;SDS011;20156;47.486;12.074;2023-09-12T11:50:28;14.45;;;12.93;;
33858;SDS011;20156;47.486;12.074;2023-09-12T11:53:05;13.95;;;12.52;;
33858;SDS011;20156;47.486;12.074;2023-09-12T11:55:42;15.88;;;12.88;;
33858;SDS011;20156;47.486;12.074;2023-09-12T11:58:16;14.38;;;13.10;;
33858;SDS011;20156;47.486;12.074;2023-09-12T12:00:45;14.48;;;13.00;;
33858;SDS011;20156;47.486;12.074;2023-09-12T12:03:16;14.13;;;12.80;;
33858;SDS011;20156;47.486;12.074;2023-09-12T12:05:42;14.27;;;12.88;;
33858;SDS011;20156;47.486;12.074;2023-09-12T12:08:08;16.42;;;13.38;;
33858;SDS011;20156;47.486;12.074;2023-09-12T12:10:35;13.85;;;12.45;;
33858;SDS011;20156;47.486;12.074;2023-09-12T12:13:03;15.00;;;12.75;;
33858;SDS011;20156;47.486;12.074;2023-09-12T12:15:28;16.55;;;14.30;;
33858;SDS011;20156;47.486;12.074;2023-09-12T12:17:54;13.07;;;11.80;;
33858;SDS011;20156;47.486;12.074;2023-09-12T12:20:21;13.43;;;11.82;;
33858;SDS011;20156;47.486;12.074;2023-09-12T12:22:46;12.65;;;11.52;;
33858;SDS011;20156;47.486;12.074;2023-09-12T12:25:13;13.10;;;11.90;;
33858;SDS011;20156;47.486;12.074;2023-09-12T12:27:40;11.82;;;10.63;;
33858;SDS011;20156;47.486;12.074;2023-09-12T12:30:10;13.02;;;11.75;;
33858;SDS011;20156;47.486;12.074;2023-09-12T12:32:40;11.75;;;10.65;;
33858;SDS011;20156;47.486;12.074;2023-09-12T12:35:07;11.80;;;10.63;;
33858;SDS011;20156;47.486;12.074;2023-09-12T12:37:33;11.98;;;10.98;;
33858;SDS011;20156;47.486;12.074;2023-09-12T12:39:59;13.20;;;12.02;;
33858;SDS011;20156;47.486;12.074;2023-09-12T12:42:38;12.75;;;11.48;;
33858;SDS011;20156;47.486;12.074;2023-09-12T12:45:26;12.85;;;11.55;;
33858;SDS011;20156;47.486;12.074;2023-09-12T12:47:51;12.25;;;11.00;;
33858;SDS011;20156;47.486;12.074;2023-09-12T12:50:20;12.27;;;11.02;;
33858;SDS011;20156;47.486;12.074;2023-09-12T12:52:46;12.13;;;10.77;;
33858;SDS011;20156;47.486;12.074;2023-09-12T12:55:13;10.95;;;9.98;;
33858;SDS011;20156;47.486;12.074;2023-09-12T12:57:42;11.80;;;10.68;;
33858;SDS011;20156;47.486;12.074;2023-09-12T13:00:09;11.70;;;10.57;;
33858;SDS011;20156;47.486;12.074;2023-09-12T13:02:42;12.95;;;11.52;;
33858;SDS011;20156;47.486;12.074;2023-09-12T13:07:53;12.32;;;11.20;;
33858;SDS011;20156;47.486;12.074;2023-09-12T13:10:19;12.80;;;10.15;;
33858;SDS011;20156;47.486;12.074;2023-09-12T13:12:46;11.18;;;10.02;;
33858;SDS011;20156;47.486;12.074;2023-09-12T13:15:13;10.93;;;9.93;;
33858;SDS011;20156;47.486;12.074;2023-09-12T13:17:40;11.57;;;10.57;;
33858;SDS011;20156;47.486;12.074;2023-09-12T13:20:06;10.88;;;9.77;;
33858;SDS011;20156;47.486;12.074;2023-09-12T13:22:33;10.38;;;9.32;;
33858;SDS011;20156;47.486;12.074;2023-09-12T13:24:59;10.75;;;9.70;;
33858;SDS011;20156;47.486;12.074;2023-09-12T13:27:24;10.68;;;9.73;;
33858;SDS011;20156;47.486;12.074;2023-09-12T13:29:49;10.52;;;9.73;;
33858;SDS011;20156;47.486;12.074;2023-09-12T13:32:15;10.90;;;9.85;;
33858;SDS011;20156;47.486;12.074;2023-09-12T13:34:41;11.00;;;10.00;;
33858;SDS011;20156;47.486;12.074;2023-09-12T13:37:07;11.13;;;10.10;;
33858;SDS011;20156;47.486;12.074;2023-09-12T13:39:32;10.60;;;9.70;;
33858;SDS011;20156;47.486;12.074;2023-09-12T13:41:57;11.55;;;10.35;;
33858;SDS011;20156;47.486;12.074;2023-09-12T13:44:26;11.25;;;10.25;;
33858;SDS011;20156;47.486;12.074;2023-09-12T13:46:52;11.93;;;10.75;;
33858;SDS011;20156;47.486;12.074;2023-09-12T13:49:18;10.85;;;9.75;;
33858;SDS011;20156;47.486;12.074;2023-09-12T13:51:43;11.40;;;10.32;;
33858;SDS011;20156;47.486;12.074;2023-09-12T13:54:09;11.02;;;9.98;;
33858;SDS011;20156;47.486;12.074;2023-09-12T13:56:39;11.02;;;10.00;;
33858;SDS011;20156;47.486;12.074;2023-09-12T13:59:05;10.18;;;9.38;;
33858;SDS011;20156;47.486;12.074;2023-09-12T14:01:32;12.52;;;10.82;;
33858;SDS011;20156;47.486;12.074;2023-09-12T14:03:57;10.98;;;9.95;;
33858;SDS011;20156;47.486;12.074;2023-09-12T14:06:23;11.30;;;10.18;;
33858;SDS011;20156;47.486;12.074;2023-09-12T14:08:49;9.98;;;8.75;;
33858;SDS011;20156;47.486;12.074;2023-09-12T14:11:14;10.50;;;9.55;;
33858;SDS011;20156;47.486;12.074;2023-09-12T14:13:40;11.25;;;10.15;;
33858;SDS011;20156;47.486;12.074;2023-09-12T14:16:06;10.85;;;9.77;;
33858;SDS011;20156;47.486;12.074;2023-09-12T14:18:32;11.63;;;9.63;;
33858;SDS011;20156;47.486;12.074;2023-09-12T14:20:58;10.10;;;9.20;;
33858;SDS011;20156;47.486;12.074;2023-09-12T14:23:24;11.20;;;10.15;;
33858;SDS011;20156;47.486;12.074;2023-09-12T14:25:50;10.80;;;9.80;;
33858;SDS011;20156;47.486;12.074;2023-09-12T14:28:17;10.60;;;9.57;;
33858;SDS011;20156;47.486;12.074;2023-09-12T14:30:43;13.80;;;9.88;;